createdAt,value
2019-01-17T00:00:54.696Z,9.97
2019-01-17T00:03:24.785Z,7.20
2019-01-17T00:05:54.892Z,4.93
2019-01-17T00:08:33.937Z,7.33
2019-01-17T00:11:19.240Z,7.43
2019-01-17T00:13:49.316Z,8.40
2019-01-17T00:16:22.113Z,10.63
2019-01-17T00:19:08.579Z,5.93
2019-01-17T00:21:54.878Z,8.03
2019-01-17T00:24:24.957Z,5.67
2019-01-17T00:26:55.345Z,12.17
2019-01-17T00:29:34.481Z,7.77
2019-01-17T00:32:07.001Z,9.03
2019-01-17T00:34:37.105Z,7.70
2019-01-17T00:37:07.231Z,6.57
2019-01-17T00:39:37.297Z,7.67
2019-01-17T00:42:13.164Z,6.10
2019-01-17T00:44:59.952Z,8.93
2019-01-17T00:47:30.022Z,9.17
2019-01-17T00:50:02.813Z,8.33
2019-01-17T00:52:41.841Z,8.17
2019-01-17T00:55:21.017Z,7.97
2019-01-17T00:58:07.513Z,7.43
2019-01-17T01:00:37.614Z,7.03
2019-01-17T01:03:07.756Z,6.97
2019-01-17T01:05:37.837Z,5.63
2019-01-17T01:08:11.216Z,6.50
2019-01-17T01:10:43.680Z,6.17
2019-01-17T01:13:16.709Z,6.30
2019-01-17T01:15:55.746Z,4.87
2019-01-17T01:18:28.548Z,5.87
2019-01-17T01:21:14.714Z,7.43
2019-01-17T01:23:50.497Z,8.67
2019-01-17T01:26:32.505Z,6.63
2019-01-17T01:29:19.127Z,4.50
2019-01-17T01:31:49.197Z,7.63
2019-01-17T01:34:22.270Z,5.97
2019-01-17T01:36:55.668Z,5.80
2019-01-17T01:39:25.821Z,7.37
2019-01-17T01:42:08.107Z,8.77
2019-01-17T01:44:54.452Z,8.67
2019-01-17T01:47:30.869Z,5.83
2019-01-17T01:50:06.698Z,7.50
2019-01-17T01:52:37.148Z,8.17
2019-01-17T01:55:06.349Z,8.07
2019-01-17T01:57:34.768Z,7.37
2019-01-17T02:00:05.765Z,6.40
2019-01-17T02:02:34.182Z,6.27
2019-01-17T02:05:02.638Z,4.50
2019-01-17T02:07:31.096Z,4.93
2019-01-17T02:09:59.886Z,7.27
2019-01-17T02:12:28.324Z,8.13
2019-01-17T02:14:56.735Z,4.77
2019-01-17T02:17:25.657Z,3.93
2019-01-17T02:19:54.670Z,4.80
2019-01-17T02:22:23.124Z,5.67
2019-01-17T02:24:51.881Z,4.17
2019-01-17T02:27:20.656Z,4.03
2019-01-17T02:29:49.357Z,4.33
2019-01-17T02:32:17.789Z,4.10
2019-01-17T02:34:46.244Z,3.93
2019-01-17T02:37:14.681Z,4.60
2019-01-17T02:39:43.114Z,3.30
2019-01-17T02:42:11.609Z,5.90
2019-01-17T02:44:40.065Z,3.80
2019-01-17T02:47:08.499Z,3.20
2019-01-17T02:49:36.926Z,4.37
2019-01-17T02:52:05.348Z,4.07
2019-01-17T02:54:35.823Z,4.73
2019-01-17T02:57:04.326Z,3.83
2019-01-17T02:59:32.786Z,3.97
2019-01-17T03:02:01.220Z,2.93
2019-01-17T03:04:29.676Z,2.73
2019-01-17T03:06:58.121Z,4.90
2019-01-17T03:09:26.593Z,3.83
2019-01-17T03:11:55.097Z,5.50
2019-01-17T03:14:23.956Z,3.77
2019-01-17T03:16:52.726Z,4.07
2019-01-17T03:19:21.178Z,2.73
2019-01-17T03:21:49.634Z,5.03
2019-01-17T03:24:18.450Z,2.23
2019-01-17T03:26:46.886Z,2.57
2019-01-17T03:29:15.328Z,2.63
2019-01-17T03:31:43.795Z,3.80
2019-01-17T03:34:12.230Z,4.03
2019-01-17T03:36:40.672Z,2.30
2019-01-17T03:39:09.110Z,3.70
2019-01-17T03:41:37.914Z,2.20
2019-01-17T03:44:06.350Z,2.40
2019-01-17T03:46:34.784Z,2.27
2019-01-17T03:49:03.501Z,2.37
2019-01-17T03:51:31.954Z,3.63
2019-01-17T03:54:00.403Z,2.10
2019-01-17T03:56:29.198Z,2.83
2019-01-17T03:58:57.638Z,2.03
2019-01-17T04:01:26.470Z,2.50
2019-01-17T04:03:54.927Z,2.50
2019-01-17T04:06:23.377Z,2.10
2019-01-17T04:08:52.117Z,1.80
2019-01-17T04:11:20.582Z,1.80
2019-01-17T04:13:49.012Z,2.40
2019-01-17T04:16:17.766Z,2.63
2019-01-17T04:18:46.646Z,2.70
2019-01-17T04:21:15.094Z,1.97
2019-01-17T04:23:43.522Z,1.73
2019-01-17T04:26:11.971Z,1.37
2019-01-17T04:28:40.882Z,2.13
2019-01-17T04:31:09.336Z,1.53
2019-01-17T04:33:37.766Z,2.00
2019-01-17T04:36:06.234Z,1.57
2019-01-17T04:38:34.662Z,1.40
2019-01-17T04:41:03.107Z,2.73
2019-01-17T04:43:31.540Z,1.50
2019-01-17T04:46:00.000Z,2.90
2019-01-17T04:48:28.729Z,1.70
2019-01-17T04:50:57.510Z,3.27
2019-01-17T04:53:25.944Z,1.80
2019-01-17T04:55:54.770Z,1.63
2019-01-17T04:58:23.207Z,2.20
2019-01-17T05:00:51.694Z,1.80
2019-01-17T05:03:20.515Z,1.73
2019-01-17T05:05:49.295Z,2.30
2019-01-17T05:08:17.729Z,2.20
2019-01-17T05:10:46.173Z,1.70
2019-01-17T05:13:14.615Z,2.03
2019-01-17T05:15:43.045Z,2.23
2019-01-17T05:18:11.800Z,1.87
2019-01-17T05:20:40.514Z,1.37
2019-01-17T05:23:09.264Z,3.27
2019-01-17T05:25:37.711Z,1.50
2019-01-17T05:28:06.163Z,1.67
2019-01-17T05:30:34.924Z,1.47
2019-01-17T05:33:03.380Z,1.53
2019-01-17T05:35:31.810Z,2.50
2019-01-17T05:38:00.276Z,1.60
2019-01-17T05:40:28.694Z,1.53
2019-01-17T05:42:57.144Z,1.60
2019-01-17T05:45:25.602Z,1.77
2019-01-17T05:47:54.063Z,1.50
2019-01-17T05:50:22.497Z,1.70
2019-01-17T05:52:50.959Z,1.63
2019-01-17T05:55:20.261Z,2.03
2019-01-17T05:57:49.050Z,3.70
2019-01-17T06:00:20.139Z,1.97
2019-01-17T06:02:48.833Z,2.00
2019-01-17T06:05:18.090Z,1.97
2019-01-17T06:07:46.624Z,2.23
2019-01-17T06:10:15.666Z,2.00
2019-01-17T06:12:44.108Z,2.40
2019-01-17T06:15:16.023Z,3.00
2019-01-17T06:17:45.077Z,3.97
2019-01-17T06:20:16.790Z,2.40
2019-01-17T06:22:45.309Z,2.17
2019-01-17T06:25:14.166Z,1.97
2019-01-17T06:27:42.964Z,2.13
2019-01-17T06:30:14.319Z,2.60
2019-01-17T06:32:43.091Z,2.30
2019-01-17T06:35:12.065Z,3.00
2019-01-17T06:37:40.494Z,2.03
2019-01-17T06:40:14.845Z,3.23
2019-01-17T06:42:43.654Z,2.20
2019-01-17T06:45:12.183Z,2.10
2019-01-17T06:47:40.629Z,2.57
2019-01-17T06:50:10.536Z,2.53
2019-01-17T06:52:39.135Z,3.87
2019-01-17T06:55:08.635Z,4.73
2019-01-17T06:57:37.203Z,4.50
2019-01-17T07:00:14.525Z,2.60
2019-01-17T07:02:43.269Z,3.77
2019-01-17T07:05:14.305Z,5.37
2019-01-17T07:07:43.234Z,2.70
2019-01-17T07:10:14.224Z,2.60
2019-01-17T07:12:42.650Z,2.70
2019-01-17T07:15:11.727Z,2.50
2019-01-17T07:17:40.175Z,3.57
2019-01-17T07:20:11.651Z,3.87
2019-01-17T07:22:40.103Z,2.30
2019-01-17T07:25:10.292Z,2.50
2019-01-17T07:27:39.298Z,2.40
2019-01-17T07:30:19.910Z,2.63
2019-01-17T07:32:48.426Z,2.30
2019-01-17T07:35:18.189Z,2.43
2019-01-17T07:37:46.727Z,2.90
2019-01-17T07:40:16.163Z,3.00
2019-01-17T07:42:44.607Z,2.50
2019-01-17T07:45:19.182Z,2.17
2019-01-17T07:47:47.637Z,2.40
2019-01-17T07:50:16.572Z,2.97
2019-01-17T07:53:30.091Z,2.50
2019-01-17T07:55:58.550Z,2.23
2019-01-17T07:58:27.020Z,2.33
2019-01-17T08:00:55.451Z,2.50
2019-01-17T08:03:24.198Z,2.67
2019-01-17T08:05:52.703Z,3.20
2019-01-17T08:08:21.170Z,2.67
2019-01-17T08:10:49.601Z,2.20
2019-01-17T08:13:18.067Z,2.30
2019-01-17T08:15:46.514Z,2.47
2019-01-17T08:18:18.656Z,2.37
2019-01-17T08:20:45.100Z,2.00
2019-01-17T08:23:13.573Z,2.33
2019-01-17T08:25:42.463Z,2.10
2019-01-17T08:28:10.906Z,2.10
2019-01-17T08:30:40.394Z,2.07
2019-01-17T08:33:09.229Z,2.00
2019-01-17T08:35:38.019Z,2.10
2019-01-17T08:38:06.450Z,2.23
2019-01-17T08:40:34.995Z,1.77
2019-01-17T08:43:03.775Z,2.77
2019-01-17T08:45:32.281Z,2.17
2019-01-17T08:48:02.355Z,2.60
2019-01-17T08:50:30.806Z,1.67
2019-01-17T08:52:59.251Z,1.83
2019-01-17T08:55:27.767Z,2.40
2019-01-17T08:57:56.198Z,1.70
2019-01-17T09:00:26.291Z,1.60
2019-01-17T09:03:10.798Z,2.27
2019-01-17T09:05:39.242Z,1.77
2019-01-17T09:08:07.703Z,1.90
2019-01-17T09:10:36.430Z,1.60
2019-01-17T09:13:05.125Z,1.50
2019-01-17T09:15:34.178Z,1.60
2019-01-17T09:18:04.734Z,1.20
2019-01-17T09:20:33.482Z,1.30
2019-01-17T09:23:01.931Z,1.30
2019-01-17T09:25:30.396Z,1.10
2019-01-17T09:27:58.845Z,1.23
2019-01-17T09:30:27.300Z,1.23
2019-01-17T09:32:55.740Z,1.20
2019-01-17T09:35:24.578Z,1.57
2019-01-17T09:37:53.003Z,1.37
2019-01-17T09:40:22.795Z,1.30
2019-01-17T09:42:51.321Z,1.60
2019-01-17T09:45:20.230Z,1.50
2019-01-17T09:47:48.652Z,1.30
2019-01-17T09:50:22.728Z,1.37
2019-01-17T09:52:51.497Z,0.97
2019-01-17T09:55:20.422Z,1.63
2019-01-17T09:57:48.923Z,1.07
2019-01-17T10:00:25.714Z,2.23
2019-01-17T10:03:29.350Z,1.27
2019-01-17T10:05:57.814Z,1.93
2019-01-17T10:08:26.249Z,1.40
2019-01-17T10:10:54.685Z,1.67
2019-01-17T10:13:23.481Z,1.50
2019-01-17T10:15:57.674Z,1.40
2019-01-17T10:18:38.004Z,2.10
2019-01-17T10:21:31.928Z,1.40
2019-01-17T10:24:09.186Z,1.33
2019-01-17T10:27:03.443Z,2.20
2019-01-17T10:29:40.533Z,1.50
2019-01-17T10:32:35.685Z,1.60
2019-01-17T10:35:25.366Z,1.57
2019-01-17T10:38:25.074Z,1.20
2019-01-17T10:41:02.554Z,1.20
2019-01-17T10:43:52.541Z,1.10
2019-01-17T10:46:54.300Z,1.33
2019-01-17T10:49:50.426Z,1.20
2019-01-17T10:52:24.572Z,1.47
2019-01-17T10:55:15.385Z,2.90
2019-01-17T10:57:49.675Z,1.70
2019-01-17T11:00:30.837Z,1.10
2019-01-17T11:03:30.338Z,1.40
2019-01-17T11:06:04.769Z,1.10
2019-01-17T11:08:41.854Z,1.27
2019-01-17T11:11:15.965Z,1.10
2019-01-17T11:14:03.505Z,1.20
2019-01-17T11:16:37.846Z,1.07
2019-01-17T11:19:21.136Z,1.00
2019-01-17T11:21:58.266Z,1.13
2019-01-17T11:24:41.542Z,1.40
2019-01-17T11:27:38.314Z,1.17
2019-01-17T11:30:26.041Z,0.90
2019-01-17T11:33:09.418Z,1.00
2019-01-17T11:35:57.786Z,1.00
2019-01-17T11:38:32.635Z,0.80
2019-01-17T11:41:06.501Z,1.20
2019-01-17T11:44:17.762Z,1.30
2019-01-17T11:46:58.096Z,1.30
2019-01-17T11:50:03.179Z,1.20
2019-01-17T11:52:57.153Z,0.90
2019-01-17T11:55:50.349Z,1.03
2019-01-17T11:58:34.460Z,1.17
2019-01-17T12:01:21.822Z,1.27
2019-01-17T12:04:05.151Z,1.10
2019-01-17T12:06:33.609Z,1.00
2019-01-17T12:09:02.067Z,0.93
2019-01-17T12:11:33.238Z,1.17
2019-01-17T12:14:02.027Z,1.20
2019-01-17T12:16:30.466Z,1.43
2019-01-17T12:18:58.902Z,0.80
2019-01-17T12:21:27.344Z,0.53
2019-01-17T12:23:55.781Z,2.70
2019-01-17T12:26:24.227Z,0.90
2019-01-17T12:28:53.005Z,1.73
2019-01-17T12:31:21.777Z,0.73
2019-01-17T12:33:50.566Z,1.63
2019-01-17T12:36:19.016Z,1.77
2019-01-17T12:38:47.488Z,2.03
2019-01-17T12:41:16.211Z,0.80
2019-01-17T12:43:44.650Z,1.20
2019-01-17T12:46:13.101Z,1.00
2019-01-17T12:48:41.558Z,1.03
2019-01-17T12:51:09.993Z,1.10
2019-01-17T12:53:38.443Z,0.80
2019-01-17T12:56:07.230Z,0.93
2019-01-17T12:58:39.827Z,0.80
2019-01-17T13:01:08.681Z,1.17
2019-01-17T13:03:44.932Z,1.50
2019-01-17T13:06:20.298Z,0.73
2019-01-17T13:08:55.277Z,2.83
2019-01-17T13:11:26.369Z,1.57
2019-01-17T13:13:54.827Z,1.07
2019-01-17T13:16:25.547Z,0.97
2019-01-17T13:18:54.286Z,1.63
2019-01-17T13:21:23.115Z,2.63
2019-01-17T13:23:51.645Z,0.90
2019-01-17T13:26:20.209Z,4.13
2019-01-17T13:28:48.653Z,1.17
2019-01-17T13:31:17.084Z,1.73
2019-01-17T13:33:46.282Z,0.60
2019-01-17T13:36:14.727Z,0.50
2019-01-17T13:38:43.509Z,0.63
2019-01-17T13:41:12.955Z,0.60
2019-01-17T13:43:41.401Z,0.40
2019-01-17T13:46:10.267Z,0.50
2019-01-17T13:48:42.129Z,2.43
2019-01-17T13:51:10.641Z,2.33
2019-01-17T13:53:39.788Z,3.60
2019-01-17T13:56:08.310Z,0.60
2019-01-17T13:58:37.079Z,0.80
2019-01-17T14:01:05.575Z,1.40
2019-01-17T14:03:34.011Z,0.50
2019-01-17T14:06:02.456Z,0.60
2019-01-17T14:08:33.661Z,0.77
2019-01-17T14:11:02.466Z,1.10
2019-01-17T14:13:30.893Z,1.00
2019-01-17T14:15:59.363Z,0.80
2019-01-17T14:18:28.038Z,1.20
2019-01-17T14:20:56.714Z,0.60
2019-01-17T14:23:25.169Z,0.83
2019-01-17T14:25:53.621Z,0.43
2019-01-17T14:28:22.414Z,3.90
2019-01-17T14:30:50.873Z,1.17
2019-01-17T14:33:21.029Z,3.07
2019-01-17T14:35:49.495Z,1.60
2019-01-17T14:38:17.958Z,1.53
2019-01-17T14:40:46.485Z,1.17
2019-01-17T14:43:14.983Z,2.00
2019-01-17T14:45:43.450Z,0.50
2019-01-17T14:48:12.207Z,1.67
2019-01-17T14:50:40.927Z,1.47
2019-01-17T14:53:09.398Z,5.20
2019-01-17T14:55:37.864Z,0.80
2019-01-17T14:58:06.356Z,3.57
2019-01-17T15:00:34.868Z,0.60
2019-01-17T15:03:03.322Z,3.70
2019-01-17T15:05:31.816Z,2.50
2019-01-17T15:08:00.340Z,1.80
2019-01-17T15:10:32.241Z,2.20
2019-01-17T15:13:00.999Z,0.57
2019-01-17T15:15:29.802Z,0.50
2019-01-17T15:17:58.255Z,1.40
2019-01-17T15:20:26.685Z,2.10
2019-01-17T15:22:55.118Z,1.93
2019-01-17T15:25:23.561Z,1.43
2019-01-17T15:27:52.365Z,0.53
2019-01-17T15:30:25.411Z,2.10
2019-01-17T15:32:54.112Z,0.67
2019-01-17T15:35:22.820Z,0.73
2019-01-17T15:37:51.555Z,0.40
2019-01-17T15:40:23.279Z,2.70
2019-01-17T15:42:52.066Z,1.60
2019-01-17T15:45:20.577Z,0.60
2019-01-17T15:47:49.013Z,1.27
2019-01-17T15:50:19.883Z,1.47
2019-01-17T15:52:48.589Z,0.50
2019-01-17T15:55:18.194Z,1.40
2019-01-17T15:57:46.938Z,0.60
2019-01-17T16:00:26.987Z,1.27
2019-01-17T16:02:55.443Z,0.70
2019-01-17T16:05:23.880Z,0.50
2019-01-17T16:07:52.330Z,8.80
2019-01-17T16:10:21.104Z,1.20
2019-01-17T16:12:49.925Z,0.60
2019-01-17T16:15:21.971Z,1.33
2019-01-17T16:17:50.415Z,0.63
2019-01-17T16:20:19.418Z,0.70
2019-01-17T16:22:47.853Z,1.67
2019-01-17T16:25:16.568Z,0.60
2019-01-17T16:27:45.039Z,1.03
2019-01-17T16:30:19.438Z,1.37
2019-01-17T16:32:47.967Z,0.93
2019-01-17T16:35:19.424Z,1.90
2019-01-17T16:37:47.938Z,0.70
2019-01-17T16:40:16.751Z,1.67
2019-01-17T16:42:45.567Z,0.80
2019-01-17T16:45:22.156Z,1.10
2019-01-17T16:47:50.605Z,0.70
2019-01-17T16:50:21.275Z,0.83
2019-01-17T16:52:50.069Z,1.70
2019-01-17T16:55:18.721Z,2.93
2019-01-17T16:57:49.169Z,2.37
2019-01-17T17:00:26.091Z,1.50
2019-01-17T17:02:59.936Z,2.33
2019-01-17T17:05:28.717Z,0.90
2019-01-17T17:07:57.173Z,1.37
2019-01-17T17:10:25.894Z,0.77
2019-01-17T17:12:54.375Z,0.90
2019-01-17T17:15:23.166Z,0.80
2019-01-17T17:17:51.640Z,0.80
2019-01-17T17:20:22.517Z,0.87
2019-01-17T17:22:50.966Z,1.27
2019-01-17T17:25:19.420Z,1.07
2019-01-17T17:27:47.947Z,0.93
2019-01-17T17:30:21.713Z,1.30
2019-01-17T17:32:50.519Z,2.73
2019-01-17T17:35:19.095Z,1.40
2019-01-17T17:37:48.083Z,1.30
2019-01-17T17:40:21.715Z,1.90
2019-01-17T17:42:50.689Z,2.37
2019-01-17T17:45:19.384Z,1.53
2019-01-17T17:47:47.850Z,1.77
2019-01-17T17:50:18.930Z,1.50
2019-01-17T17:52:47.782Z,1.80
2019-01-17T17:55:20.470Z,2.07
2019-01-17T17:57:48.997Z,2.00
2019-01-17T18:00:26.768Z,1.80
2019-01-17T18:02:55.585Z,1.80
2019-01-17T18:05:24.080Z,2.40
2019-01-17T18:07:52.535Z,3.90
2019-01-17T18:10:20.969Z,2.27
2019-01-17T18:12:49.432Z,1.87
2019-01-17T18:15:19.530Z,1.47
2019-01-17T18:17:48.942Z,2.73
2019-01-17T18:20:18.509Z,1.83
2019-01-17T18:22:47.647Z,1.63
2019-01-17T18:25:16.232Z,1.50
2019-01-17T18:27:44.833Z,1.60
2019-01-17T18:30:21.908Z,2.20
2019-01-17T18:32:51.210Z,1.67
2019-01-17T18:35:19.912Z,1.30
2019-01-17T18:37:48.381Z,1.50
2019-01-17T18:40:18.941Z,1.73
2019-01-17T18:42:47.849Z,1.63
2019-01-17T18:45:24.514Z,1.70
2019-01-17T18:47:54.153Z,1.93
2019-01-17T18:50:28.758Z,1.73
2019-01-17T18:52:57.778Z,2.53
2019-01-17T18:55:26.589Z,1.60
2019-01-17T18:57:56.023Z,1.70
2019-01-17T19:00:28.146Z,1.80
2019-01-17T19:02:57.138Z,1.77
2019-01-17T19:05:26.386Z,2.10
2019-01-17T19:07:55.196Z,1.93
2019-01-17T19:10:23.984Z,4.50
2019-01-17T19:12:52.787Z,1.87
2019-01-17T19:15:32.346Z,2.20
2019-01-17T19:18:01.002Z,2.03
2019-01-17T19:20:29.872Z,1.90
2019-01-17T19:22:58.658Z,2.13
2019-01-17T19:25:27.160Z,2.60
2019-01-17T19:27:56.144Z,2.60
2019-01-17T19:30:29.260Z,1.73
2019-01-17T19:32:57.856Z,2.33
2019-01-17T19:35:26.290Z,2.07
2019-01-17T19:37:55.103Z,2.13
2019-01-17T19:40:30.036Z,2.30
2019-01-17T19:42:58.664Z,2.47
2019-01-17T19:45:27.569Z,1.90
2019-01-17T19:47:56.354Z,2.03
2019-01-17T19:50:27.409Z,2.10
2019-01-17T19:52:56.415Z,2.00
2019-01-17T19:55:24.993Z,2.37
2019-01-17T19:57:53.442Z,2.43
2019-01-17T20:00:23.046Z,2.20
2019-01-17T20:02:51.866Z,2.63
2019-01-17T20:05:26.297Z,2.60
2019-01-17T20:07:54.831Z,3.87
2019-01-17T20:10:26.183Z,2.80
2019-01-17T20:12:54.896Z,2.70
2019-01-17T20:15:23.397Z,2.50
2019-01-17T20:17:53.456Z,3.30
2019-01-17T20:20:23.408Z,5.40
2019-01-17T20:22:52.284Z,6.13
2019-01-17T20:25:22.890Z,4.10
2019-01-17T20:27:51.526Z,2.80
2019-01-17T20:30:23.154Z,2.70
2019-01-17T20:32:51.662Z,3.67
2019-01-17T20:35:20.520Z,2.57
2019-01-17T20:37:49.021Z,2.83
2019-01-17T20:40:20.552Z,2.93
2019-01-17T20:42:49.319Z,3.20
2019-01-17T20:45:18.518Z,3.00
2019-01-17T20:47:47.144Z,3.20
2019-01-17T20:50:18.476Z,2.80
2019-01-17T20:52:47.347Z,5.80
2019-01-17T20:55:16.144Z,3.10
2019-01-17T20:57:45.265Z,2.73
2019-01-17T21:00:25.642Z,2.70
2019-01-17T21:02:54.074Z,2.40
2019-01-17T21:05:24.089Z,2.40
2019-01-17T21:07:52.514Z,2.50
2019-01-17T21:10:21.648Z,2.73
2019-01-17T21:12:50.074Z,3.73
2019-01-17T21:15:18.527Z,2.50
2019-01-17T21:17:47.286Z,2.13
2019-01-17T21:20:16.017Z,3.83
2019-01-17T21:22:44.753Z,4.97
2019-01-17T21:25:18.615Z,2.70
2019-01-17T21:27:47.066Z,2.00
2019-01-17T21:30:25.911Z,6.77
2019-01-17T21:32:54.341Z,6.40
2019-01-17T21:35:22.782Z,3.47
2019-01-17T21:37:51.722Z,3.33
2019-01-17T21:40:24.573Z,3.73
2019-01-17T21:42:53.009Z,2.33
2019-01-17T21:45:21.477Z,4.17
2019-01-17T21:47:49.940Z,2.80
2019-01-17T21:50:24.871Z,4.00
2019-01-17T21:52:53.311Z,4.30
2019-01-17T21:55:22.144Z,1.93
2019-01-17T21:57:50.670Z,2.23
2019-01-17T22:00:26.962Z,3.33
2019-01-17T22:02:55.413Z,2.37
2019-01-17T22:05:23.946Z,3.03
2019-01-17T22:07:52.418Z,2.10
2019-01-17T22:10:21.817Z,4.10
2019-01-17T22:12:50.251Z,2.77
2019-01-17T22:15:26.458Z,2.67
2019-01-17T22:17:55.156Z,2.83
2019-01-17T22:20:24.345Z,4.40
2019-01-17T22:22:52.858Z,3.97
2019-01-17T22:25:22.056Z,6.87
2019-01-17T22:27:52.331Z,3.73
2019-01-17T22:30:26.365Z,6.40
2019-01-17T22:32:55.226Z,4.90
2019-01-17T22:35:23.836Z,3.13
2019-01-17T22:37:52.300Z,3.80
2019-01-17T22:40:20.816Z,3.23
2019-01-17T22:42:49.252Z,4.67
2019-01-17T22:45:21.127Z,3.20
2019-01-17T22:47:49.581Z,5.40
2019-01-17T22:50:19.541Z,4.13
2019-01-17T22:52:49.741Z,4.20
2019-01-17T22:55:18.169Z,3.40
2019-01-17T22:57:46.633Z,3.50
2019-01-17T23:00:41.093Z,3.80
2019-01-17T23:03:09.990Z,3.57
2019-01-17T23:05:38.733Z,5.17
2019-01-17T23:08:07.180Z,3.30
2019-01-17T23:10:36.023Z,4.07
2019-01-17T23:13:04.928Z,3.57
2019-01-17T23:15:33.426Z,3.40
2019-01-17T23:18:02.292Z,3.20
2019-01-17T23:20:30.740Z,4.67
2019-01-17T23:22:59.225Z,3.03
2019-01-17T23:25:27.662Z,3.83
2019-01-17T23:27:56.260Z,4.00
2019-01-17T23:30:24.718Z,6.97
2019-01-17T23:32:53.194Z,5.30
2019-01-17T23:35:21.651Z,3.63
2019-01-17T23:37:50.118Z,2.80
2019-01-17T23:40:18.540Z,4.23
2019-01-17T23:42:47.002Z,3.47
2019-01-17T23:45:15.532Z,3.23
2019-01-17T23:47:44.093Z,2.70
2019-01-17T23:50:13.313Z,3.63
2019-01-17T23:52:41.774Z,3.27
2019-01-17T23:55:10.810Z,5.70
2019-01-17T23:57:39.604Z,2.87
